sensor_id;sensor_type;location;lat;lon;timestamp;P1;durP1;ratioP1;P2;durP2;ratioP2
12625;SDS011;6378;42.684;23.372;2023-07-13T00:00:52;7.35;;;5.97;;
12625;SDS011;6378;42.684;23.372;2023-07-13T00:03:18;6.40;;;5.75;;
12625;SDS011;6378;42.684;23.372;2023-07-13T00:05:43;6.97;;;6.05;;
12625;SDS011;6378;42.684;23.372;2023-07-13T00:08:08;6.85;;;5.90;;
12625;SDS011;6378;42.684;23.372;2023-07-13T00:10:42;7.65;;;5.70;;
12625;SDS011;6378;42.684;23.372;2023-07-13T00:13:08;6.65;;;5.68;;
12625;SDS011;6378;42.684;23.372;2023-07-13T00:15:34;7.00;;;6.30;;
12625;SDS011;6378;42.684;23.372;2023-07-13T00:18:00;7.13;;;6.38;;
12625;SDS011;6378;42.684;23.372;2023-07-13T00:20:26;9.50;;;6.95;;
12625;SDS011;6378;42.684;23.372;2023-07-13T00:22:52;7.97;;;6.60;;
12625;SDS011;6378;42.684;23.372;2023-07-13T00:25:21;9.30;;;7.03;;
12625;SDS011;6378;42.684;23.372;2023-07-13T00:27:49;7.90;;;7.10;;
12625;SDS011;6378;42.684;23.372;2023-07-13T00:30:15;8.05;;;6.75;;
12625;SDS011;6378;42.684;23.372;2023-07-13T00:32:41;8.15;;;6.63;;
12625;SDS011;6378;42.684;23.372;2023-07-13T00:35:07;7.32;;;6.60;;
12625;SDS011;6378;42.684;23.372;2023-07-13T00:37:32;7.45;;;6.75;;
12625;SDS011;6378;42.684;23.372;2023-07-13T00:39:59;7.97;;;6.82;;
12625;SDS011;6378;42.684;23.372;2023-07-13T00:42:24;7.15;;;6.20;;
12625;SDS011;6378;42.684;23.372;2023-07-13T00:47:30;8.52;;;6.85;;
12625;SDS011;6378;42.684;23.372;2023-07-13T00:49:55;7.95;;;6.65;;
12625;SDS011;6378;42.684;23.372;2023-07-13T00:52:20;7.82;;;6.78;;
12625;SDS011;6378;42.684;23.372;2023-07-13T00:54:46;7.93;;;7.13;;
12625;SDS011;6378;42.684;23.372;2023-07-13T00:57:13;9.02;;;6.50;;
12625;SDS011;6378;42.684;23.372;2023-07-13T00:59:42;9.07;;;7.03;;
12625;SDS011;6378;42.684;23.372;2023-07-13T01:02:10;9.20;;;7.20;;
12625;SDS011;6378;42.684;23.372;2023-07-13T01:04:35;8.48;;;7.68;;
12625;SDS011;6378;42.684;23.372;2023-07-13T01:07:01;8.10;;;6.47;;
12625;SDS011;6378;42.684;23.372;2023-07-13T01:09:27;8.73;;;7.50;;
12625;SDS011;6378;42.684;23.372;2023-07-13T01:11:52;7.80;;;7.00;;
12625;SDS011;6378;42.684;23.372;2023-07-13T01:14:18;8.10;;;7.30;;
12625;SDS011;6378;42.684;23.372;2023-07-13T01:16:45;8.05;;;7.07;;
12625;SDS011;6378;42.684;23.372;2023-07-13T01:22:01;7.28;;;6.55;;
12625;SDS011;6378;42.684;23.372;2023-07-13T01:24:33;9.10;;;7.47;;
12625;SDS011;6378;42.684;23.372;2023-07-13T01:26:59;8.93;;;7.10;;
12625;SDS011;6378;42.684;23.372;2023-07-13T01:29:25;7.45;;;6.68;;
12625;SDS011;6378;42.684;23.372;2023-07-13T01:31:50;8.35;;;7.53;;
12625;SDS011;6378;42.684;23.372;2023-07-13T01:34:15;11.55;;;6.88;;
12625;SDS011;6378;42.684;23.372;2023-07-13T01:36:41;7.10;;;6.40;;
12625;SDS011;6378;42.684;23.372;2023-07-13T01:39:07;9.60;;;6.88;;
12625;SDS011;6378;42.684;23.372;2023-07-13T01:41:32;7.32;;;6.18;;
12625;SDS011;6378;42.684;23.372;2023-07-13T01:43:58;7.60;;;6.40;;
12625;SDS011;6378;42.684;23.372;2023-07-13T01:46:23;8.10;;;6.40;;
12625;SDS011;6378;42.684;23.372;2023-07-13T01:48:48;8.02;;;6.68;;
12625;SDS011;6378;42.684;23.372;2023-07-13T01:51:15;8.80;;;6.35;;
12625;SDS011;6378;42.684;23.372;2023-07-13T01:53:41;9.82;;;6.90;;
12625;SDS011;6378;42.684;23.372;2023-07-13T01:56:06;9.13;;;6.13;;
12625;SDS011;6378;42.684;23.372;2023-07-13T01:58:31;7.68;;;6.82;;
12625;SDS011;6378;42.684;23.372;2023-07-13T02:00:57;7.00;;;6.20;;
12625;SDS011;6378;42.684;23.372;2023-07-13T02:03:22;9.98;;;7.05;;
12625;SDS011;6378;42.684;23.372;2023-07-13T02:05:47;7.82;;;6.28;;
12625;SDS011;6378;42.684;23.372;2023-07-13T02:08:13;8.43;;;6.43;;
12625;SDS011;6378;42.684;23.372;2023-07-13T02:10:38;7.68;;;6.88;;
12625;SDS011;6378;42.684;23.372;2023-07-13T02:13:05;11.20;;;7.63;;
12625;SDS011;6378;42.684;23.372;2023-07-13T02:15:31;10.23;;;6.90;;
12625;SDS011;6378;42.684;23.372;2023-07-13T02:17:57;8.23;;;7.10;;
12625;SDS011;6378;42.684;23.372;2023-07-13T02:20:23;8.40;;;6.70;;
12625;SDS011;6378;42.684;23.372;2023-07-13T02:22:49;8.40;;;7.55;;
12625;SDS011;6378;42.684;23.372;2023-07-13T02:25:15;9.55;;;7.10;;
12625;SDS011;6378;42.684;23.372;2023-07-13T02:27:40;10.43;;;7.30;;
12625;SDS011;6378;42.684;23.372;2023-07-13T02:30:06;9.32;;;6.68;;
12625;SDS011;6378;42.684;23.372;2023-07-13T02:32:32;10.35;;;7.72;;
12625;SDS011;6378;42.684;23.372;2023-07-13T02:34:58;9.45;;;7.28;;
12625;SDS011;6378;42.684;23.372;2023-07-13T02:37:24;9.63;;;7.70;;
12625;SDS011;6378;42.684;23.372;2023-07-13T02:39:50;8.30;;;7.28;;
12625;SDS011;6378;42.684;23.372;2023-07-13T02:42:15;9.38;;;7.55;;
12625;SDS011;6378;42.684;23.372;2023-07-13T02:44:40;9.73;;;8.02;;
12625;SDS011;6378;42.684;23.372;2023-07-13T02:47:06;10.02;;;9.02;;
12625;SDS011;6378;42.684;23.372;2023-07-13T02:49:31;10.10;;;8.95;;
12625;SDS011;6378;42.684;23.372;2023-07-13T02:51:57;10.25;;;8.57;;
12625;SDS011;6378;42.684;23.372;2023-07-13T02:54:22;13.43;;;10.98;;
12625;SDS011;6378;42.684;23.372;2023-07-13T02:56:48;10.05;;;9.00;;
12625;SDS011;6378;42.684;23.372;2023-07-13T02:59:14;10.70;;;9.00;;
12625;SDS011;6378;42.684;23.372;2023-07-13T03:01:39;11.38;;;8.80;;
12625;SDS011;6378;42.684;23.372;2023-07-13T03:04:06;13.02;;;9.45;;
12625;SDS011;6378;42.684;23.372;2023-07-13T03:06:32;11.15;;;9.60;;
12625;SDS011;6378;42.684;23.372;2023-07-13T03:08:58;11.95;;;9.75;;
12625;SDS011;6378;42.684;23.372;2023-07-13T03:11:25;14.63;;;10.18;;
12625;SDS011;6378;42.684;23.372;2023-07-13T03:13:51;11.50;;;10.20;;
12625;SDS011;6378;42.684;23.372;2023-07-13T03:16:16;14.07;;;11.60;;
12625;SDS011;6378;42.684;23.372;2023-07-13T03:18:42;15.77;;;11.02;;
12625;SDS011;6378;42.684;23.372;2023-07-13T03:21:07;12.05;;;9.80;;
12625;SDS011;6378;42.684;23.372;2023-07-13T03:23:33;12.68;;;10.20;;
12625;SDS011;6378;42.684;23.372;2023-07-13T03:26:06;12.27;;;9.85;;
12625;SDS011;6378;42.684;23.372;2023-07-13T03:28:50;12.57;;;10.85;;
12625;SDS011;6378;42.684;23.372;2023-07-13T03:31:18;14.45;;;11.07;;
12625;SDS011;6378;42.684;23.372;2023-07-13T03:33:46;11.90;;;10.70;;
12625;SDS011;6378;42.684;23.372;2023-07-13T03:36:19;11.73;;;10.43;;
12625;SDS011;6378;42.684;23.372;2023-07-13T03:38:58;11.88;;;10.55;;
12625;SDS011;6378;42.684;23.372;2023-07-13T03:41:24;11.90;;;10.10;;
12625;SDS011;6378;42.684;23.372;2023-07-13T03:43:50;12.60;;;10.15;;
12625;SDS011;6378;42.684;23.372;2023-07-13T03:46:16;11.95;;;10.32;;
12625;SDS011;6378;42.684;23.372;2023-07-13T03:48:43;13.68;;;9.85;;
12625;SDS011;6378;42.684;23.372;2023-07-13T03:51:11;19.35;;;16.92;;
12625;SDS011;6378;42.684;23.372;2023-07-13T03:53:39;14.30;;;12.65;;
12625;SDS011;6378;42.684;23.372;2023-07-13T03:56:06;13.20;;;10.23;;
12625;SDS011;6378;42.684;23.372;2023-07-13T04:00:59;11.02;;;9.85;;
12625;SDS011;6378;42.684;23.372;2023-07-13T04:03:27;12.85;;;9.85;;
12625;SDS011;6378;42.684;23.372;2023-07-13T04:05:55;13.13;;;10.18;;
12625;SDS011;6378;42.684;23.372;2023-07-13T04:08:25;13.63;;;11.10;;
12625;SDS011;6378;42.684;23.372;2023-07-13T04:10:55;13.82;;;10.55;;
12625;SDS011;6378;42.684;23.372;2023-07-13T04:13:22;15.75;;;11.05;;
12625;SDS011;6378;42.684;23.372;2023-07-13T04:15:48;17.50;;;10.75;;
12625;SDS011;6378;42.684;23.372;2023-07-13T04:18:14;12.75;;;11.10;;
12625;SDS011;6378;42.684;23.372;2023-07-13T04:20:39;12.63;;;11.15;;
12625;SDS011;6378;42.684;23.372;2023-07-13T04:23:04;12.05;;;10.68;;
12625;SDS011;6378;42.684;23.372;2023-07-13T04:25:30;12.98;;;10.82;;
12625;SDS011;6378;42.684;23.372;2023-07-13T04:27:55;17.50;;;13.10;;
12625;SDS011;6378;42.684;23.372;2023-07-13T04:30:21;18.48;;;12.02;;
12625;SDS011;6378;42.684;23.372;2023-07-13T04:32:47;20.38;;;16.08;;
12625;SDS011;6378;42.684;23.372;2023-07-13T04:35:13;13.90;;;11.32;;
12625;SDS011;6378;42.684;23.372;2023-07-13T04:37:39;18.30;;;14.43;;
12625;SDS011;6378;42.684;23.372;2023-07-13T04:40:05;11.95;;;10.68;;
12625;SDS011;6378;42.684;23.372;2023-07-13T04:42:31;14.00;;;11.60;;
12625;SDS011;6378;42.684;23.372;2023-07-13T04:44:59;13.00;;;11.40;;
12625;SDS011;6378;42.684;23.372;2023-07-13T04:47:24;14.45;;;11.40;;
12625;SDS011;6378;42.684;23.372;2023-07-13T04:49:50;14.82;;;13.27;;
12625;SDS011;6378;42.684;23.372;2023-07-13T04:52:15;15.32;;;10.88;;
12625;SDS011;6378;42.684;23.372;2023-07-13T04:54:41;14.77;;;11.70;;
12625;SDS011;6378;42.684;23.372;2023-07-13T04:57:07;12.85;;;10.15;;
12625;SDS011;6378;42.684;23.372;2023-07-13T04:59:33;13.85;;;11.23;;
12625;SDS011;6378;42.684;23.372;2023-07-13T05:01:59;13.55;;;12.05;;
12625;SDS011;6378;42.684;23.372;2023-07-13T05:04:24;12.98;;;11.45;;
12625;SDS011;6378;42.684;23.372;2023-07-13T05:06:50;18.35;;;13.82;;
12625;SDS011;6378;42.684;23.372;2023-07-13T05:09:15;16.25;;;12.55;;
12625;SDS011;6378;42.684;23.372;2023-07-13T05:11:41;14.90;;;10.93;;
12625;SDS011;6378;42.684;23.372;2023-07-13T05:14:08;13.80;;;10.70;;
12625;SDS011;6378;42.684;23.372;2023-07-13T05:16:34;14.38;;;10.43;;
12625;SDS011;6378;42.684;23.372;2023-07-13T05:19:01;17.33;;;12.40;;
12625;SDS011;6378;42.684;23.372;2023-07-13T05:21:27;16.38;;;13.48;;
12625;SDS011;6378;42.684;23.372;2023-07-13T05:23:52;16.48;;;13.23;;
12625;SDS011;6378;42.684;23.372;2023-07-13T05:26:18;13.85;;;12.35;;
12625;SDS011;6378;42.684;23.372;2023-07-13T05:28:43;24.02;;;18.02;;
12625;SDS011;6378;42.684;23.372;2023-07-13T05:31:09;18.27;;;16.25;;
12625;SDS011;6378;42.684;23.372;2023-07-13T05:33:35;19.98;;;13.98;;
12625;SDS011;6378;42.684;23.372;2023-07-13T05:36:01;15.35;;;12.55;;
12625;SDS011;6378;42.684;23.372;2023-07-13T05:38:26;13.60;;;12.25;;
12625;SDS011;6378;42.684;23.372;2023-07-13T05:40:53;16.88;;;11.93;;
12625;SDS011;6378;42.684;23.372;2023-07-13T05:43:20;15.23;;;12.60;;
12625;SDS011;6378;42.684;23.372;2023-07-13T05:45:46;15.25;;;13.23;;
12625;SDS011;6378;42.684;23.372;2023-07-13T05:48:12;14.60;;;13.10;;
12625;SDS011;6378;42.684;23.372;2023-07-13T05:50:37;15.95;;;12.35;;
12625;SDS011;6378;42.684;23.372;2023-07-13T05:53:03;16.70;;;13.27;;
12625;SDS011;6378;42.684;23.372;2023-07-13T05:55:28;17.83;;;12.35;;
12625;SDS011;6378;42.684;23.372;2023-07-13T05:57:53;21.52;;;13.65;;
12625;SDS011;6378;42.684;23.372;2023-07-13T06:00:19;16.42;;;13.98;;
12625;SDS011;6378;42.684;23.372;2023-07-13T06:02:45;17.17;;;12.25;;
12625;SDS011;6378;42.684;23.372;2023-07-13T06:05:10;18.75;;;12.98;;
12625;SDS011;6378;42.684;23.372;2023-07-13T06:07:36;14.38;;;12.98;;
12625;SDS011;6378;42.684;23.372;2023-07-13T06:10:01;12.05;;;10.80;;
12625;SDS011;6378;42.684;23.372;2023-07-13T06:12:27;11.70;;;10.45;;
12625;SDS011;6378;42.684;23.372;2023-07-13T06:14:52;11.52;;;10.25;;
12625;SDS011;6378;42.684;23.372;2023-07-13T06:17:18;12.65;;;10.27;;
12625;SDS011;6378;42.684;23.372;2023-07-13T06:19:43;12.27;;;10.85;;
12625;SDS011;6378;42.684;23.372;2023-07-13T06:22:09;12.10;;;10.63;;
12625;SDS011;6378;42.684;23.372;2023-07-13T06:24:34;11.25;;;9.48;;
12625;SDS011;6378;42.684;23.372;2023-07-13T06:27:00;14.38;;;10.13;;
12625;SDS011;6378;42.684;23.372;2023-07-13T06:29:25;12.13;;;9.65;;
12625;SDS011;6378;42.684;23.372;2023-07-13T06:31:51;11.65;;;9.15;;
12625;SDS011;6378;42.684;23.372;2023-07-13T06:34:16;13.00;;;9.95;;
12625;SDS011;6378;42.684;23.372;2023-07-13T06:36:41;10.38;;;9.30;;
12625;SDS011;6378;42.684;23.372;2023-07-13T06:39:07;11.98;;;9.20;;
12625;SDS011;6378;42.684;23.372;2023-07-13T06:41:32;16.05;;;10.40;;
12625;SDS011;6378;42.684;23.372;2023-07-13T06:43:59;13.25;;;9.82;;
12625;SDS011;6378;42.684;23.372;2023-07-13T06:46:24;13.35;;;10.40;;
12625;SDS011;6378;42.684;23.372;2023-07-13T06:48:50;14.55;;;10.75;;
12625;SDS011;6378;42.684;23.372;2023-07-13T06:51:15;13.38;;;11.77;;
12625;SDS011;6378;42.684;23.372;2023-07-13T06:53:41;15.23;;;11.82;;
12625;SDS011;6378;42.684;23.372;2023-07-13T06:56:08;13.57;;;10.70;;
12625;SDS011;6378;42.684;23.372;2023-07-13T06:58:35;14.40;;;10.82;;
12625;SDS011;6378;42.684;23.372;2023-07-13T07:01:00;12.23;;;10.23;;
12625;SDS011;6378;42.684;23.372;2023-07-13T07:03:26;13.55;;;10.13;;
12625;SDS011;6378;42.684;23.372;2023-07-13T07:05:51;11.85;;;10.27;;
12625;SDS011;6378;42.684;23.372;2023-07-13T07:08:16;11.77;;;10.48;;
12625;SDS011;6378;42.684;23.372;2023-07-13T07:10:42;12.48;;;10.48;;
12625;SDS011;6378;42.684;23.372;2023-07-13T07:13:07;11.25;;;10.05;;
12625;SDS011;6378;42.684;23.372;2023-07-13T07:15:34;15.13;;;9.88;;
12625;SDS011;6378;42.684;23.372;2023-07-13T07:18:00;11.95;;;10.45;;
12625;SDS011;6378;42.684;23.372;2023-07-13T07:20:25;11.20;;;9.95;;
12625;SDS011;6378;42.684;23.372;2023-07-13T07:22:51;14.02;;;9.98;;
12625;SDS011;6378;42.684;23.372;2023-07-13T07:25:17;11.50;;;10.25;;
12625;SDS011;6378;42.684;23.372;2023-07-13T07:27:43;12.52;;;9.82;;
12625;SDS011;6378;42.684;23.372;2023-07-13T07:30:08;14.48;;;10.55;;
12625;SDS011;6378;42.684;23.372;2023-07-13T07:32:36;11.50;;;10.25;;
12625;SDS011;6378;42.684;23.372;2023-07-13T07:35:01;12.75;;;9.57;;
12625;SDS011;6378;42.684;23.372;2023-07-13T07:37:27;10.57;;;9.27;;
12625;SDS011;6378;42.684;23.372;2023-07-13T07:39:52;11.63;;;10.07;;
12625;SDS011;6378;42.684;23.372;2023-07-13T07:42:18;16.90;;;9.82;;
12625;SDS011;6378;42.684;23.372;2023-07-13T07:44:43;12.13;;;9.97;;
12625;SDS011;6378;42.684;23.372;2023-07-13T07:47:08;10.40;;;9.23;;
12625;SDS011;6378;42.684;23.372;2023-07-13T07:49:35;12.07;;;9.48;;
12625;SDS011;6378;42.684;23.372;2023-07-13T07:52:01;11.00;;;9.90;;
12625;SDS011;6378;42.684;23.372;2023-07-13T07:54:27;12.90;;;9.80;;
12625;SDS011;6378;42.684;23.372;2023-07-13T07:56:53;11.70;;;10.48;;
12625;SDS011;6378;42.684;23.372;2023-07-13T07:59:18;13.90;;;10.40;;
12625;SDS011;6378;42.684;23.372;2023-07-13T08:01:44;11.15;;;9.82;;
12625;SDS011;6378;42.684;23.372;2023-07-13T08:04:11;14.13;;;10.13;;
12625;SDS011;6378;42.684;23.372;2023-07-13T08:06:36;12.02;;;9.75;;
12625;SDS011;6378;42.684;23.372;2023-07-13T08:09:02;17.75;;;10.50;;
12625;SDS011;6378;42.684;23.372;2023-07-13T08:11:29;13.75;;;10.70;;
12625;SDS011;6378;42.684;23.372;2023-07-13T08:13:55;14.10;;;9.80;;
12625;SDS011;6378;42.684;23.372;2023-07-13T08:16:20;14.45;;;9.75;;
12625;SDS011;6378;42.684;23.372;2023-07-13T08:18:46;20.63;;;11.35;;
12625;SDS011;6378;42.684;23.372;2023-07-13T08:21:12;13.18;;;11.00;;
12625;SDS011;6378;42.684;23.372;2023-07-13T08:23:37;14.95;;;11.10;;
12625;SDS011;6378;42.684;23.372;2023-07-13T08:26:03;12.65;;;10.98;;
12625;SDS011;6378;42.684;23.372;2023-07-13T08:28:29;11.60;;;10.40;;
12625;SDS011;6378;42.684;23.372;2023-07-13T08:30:59;17.13;;;10.70;;
12625;SDS011;6378;42.684;23.372;2023-07-13T08:33:29;13.82;;;10.63;;
12625;SDS011;6378;42.684;23.372;2023-07-13T08:35:54;15.45;;;11.27;;
12625;SDS011;6378;42.684;23.372;2023-07-13T08:38:20;15.23;;;10.65;;
12625;SDS011;6378;42.684;23.372;2023-07-13T08:40:49;13.38;;;10.43;;
12625;SDS011;6378;42.684;23.372;2023-07-13T08:43:18;13.88;;;10.63;;
12625;SDS011;6378;42.684;23.372;2023-07-13T08:45:51;14.10;;;11.07;;
12625;SDS011;6378;42.684;23.372;2023-07-13T08:48:32;13.07;;;10.82;;
12625;SDS011;6378;42.684;23.372;2023-07-13T08:54:02;14.63;;;9.80;;
12625;SDS011;6378;42.684;23.372;2023-07-13T08:56:35;15.15;;;10.73;;
12625;SDS011;6378;42.684;23.372;2023-07-13T08:59:14;14.85;;;9.90;;
12625;SDS011;6378;42.684;23.372;2023-07-13T09:04:35;14.32;;;10.30;;
12625;SDS011;6378;42.684;23.372;2023-07-13T09:14:53;15.18;;;11.30;;
12625;SDS011;6378;42.684;23.372;2023-07-13T09:17:25;13.20;;;10.13;;
12625;SDS011;6378;42.684;23.372;2023-07-13T09:20:00;12.05;;;10.77;;
12625;SDS011;6378;42.684;23.372;2023-07-13T09:22:32;13.07;;;10.55;;
12625;SDS011;6378;42.684;23.372;2023-07-13T09:27:53;13.07;;;10.18;;
12625;SDS011;6378;42.684;23.372;2023-07-13T09:30:24;14.95;;;11.40;;
12625;SDS011;6378;42.684;23.372;2023-07-13T09:32:55;13.15;;;10.48;;
12625;SDS011;6378;42.684;23.372;2023-07-13T09:35:25;15.38;;;10.60;;
12625;SDS011;6378;42.684;23.372;2023-07-13T09:37:58;14.98;;;10.80;;
12625;SDS011;6378;42.684;23.372;2023-07-13T09:43:22;13.35;;;9.77;;
12625;SDS011;6378;42.684;23.372;2023-07-13T09:45:47;11.50;;;9.90;;
12625;SDS011;6378;42.684;23.372;2023-07-13T09:48:13;12.52;;;10.15;;
12625;SDS011;6378;42.684;23.372;2023-07-13T09:50:41;12.73;;;10.23;;
12625;SDS011;6378;42.684;23.372;2023-07-13T09:53:18;12.65;;;10.45;;
12625;SDS011;6378;42.684;23.372;2023-07-13T09:55:45;14.00;;;10.55;;
12625;SDS011;6378;42.684;23.372;2023-07-13T09:58:21;12.15;;;9.90;;
12625;SDS011;6378;42.684;23.372;2023-07-13T10:00:56;12.00;;;10.80;;
12625;SDS011;6378;42.684;23.372;2023-07-13T10:03:25;12.07;;;10.50;;
12625;SDS011;6378;42.684;23.372;2023-07-13T10:05:52;12.40;;;10.30;;
12625;SDS011;6378;42.684;23.372;2023-07-13T10:11:09;13.27;;;10.25;;
12625;SDS011;6378;42.684;23.372;2023-07-13T10:13:37;18.38;;;11.15;;
12625;SDS011;6378;42.684;23.372;2023-07-13T10:16:07;11.60;;;10.02;;
12625;SDS011;6378;42.684;23.372;2023-07-13T10:18:38;13.00;;;10.50;;
12625;SDS011;6378;42.684;23.372;2023-07-13T10:21:13;13.38;;;10.80;;
12625;SDS011;6378;42.684;23.372;2023-07-13T10:23:43;14.23;;;10.68;;
12625;SDS011;6378;42.684;23.372;2023-07-13T10:26:14;12.35;;;10.48;;
12625;SDS011;6378;42.684;23.372;2023-07-13T10:28:52;12.52;;;10.70;;
12625;SDS011;6378;42.684;23.372;2023-07-13T10:31:21;16.25;;;10.30;;
12625;SDS011;6378;42.684;23.372;2023-07-13T10:33:48;14.27;;;10.57;;
12625;SDS011;6378;42.684;23.372;2023-07-13T10:36:20;13.27;;;10.95;;
12625;SDS011;6378;42.684;23.372;2023-07-13T10:38:55;14.18;;;10.20;;
12625;SDS011;6378;42.684;23.372;2023-07-13T10:41:22;19.13;;;14.73;;
12625;SDS011;6378;42.684;23.372;2023-07-13T10:43:51;11.65;;;9.20;;
12625;SDS011;6378;42.684;23.372;2023-07-13T10:46:20;12.98;;;9.30;;
12625;SDS011;6378;42.684;23.372;2023-07-13T10:48:49;11.27;;;8.13;;
12625;SDS011;6378;42.684;23.372;2023-07-13T10:51:18;12.15;;;7.28;;
12625;SDS011;6378;42.684;23.372;2023-07-13T10:53:47;11.35;;;7.50;;
12625;SDS011;6378;42.684;23.372;2023-07-13T10:56:24;12.52;;;7.80;;
12625;SDS011;6378;42.684;23.372;2023-07-13T10:59:27;9.88;;;6.20;;
12625;SDS011;6378;42.684;23.372;2023-07-13T11:04:16;10.02;;;5.95;;
12625;SDS011;6378;42.684;23.372;2023-07-13T11:06:45;9.30;;;6.35;;
12625;SDS011;6378;42.684;23.372;2023-07-13T11:11:56;9.70;;;6.63;;
12625;SDS011;6378;42.684;23.372;2023-07-13T11:14:34;9.98;;;6.57;;
12625;SDS011;6378;42.684;23.372;2023-07-13T11:20:19;10.68;;;6.00;;
12625;SDS011;6378;42.684;23.372;2023-07-13T11:25:41;11.15;;;6.68;;
12625;SDS011;6378;42.684;23.372;2023-07-13T11:30:37;9.68;;;5.65;;
12625;SDS011;6378;42.684;23.372;2023-07-13T11:35:46;8.57;;;6.40;;
12625;SDS011;6378;42.684;23.372;2023-07-13T11:40:46;9.93;;;6.15;;
12625;SDS011;6378;42.684;23.372;2023-07-13T11:43:13;7.85;;;6.70;;
12625;SDS011;6378;42.684;23.372;2023-07-13T11:45:41;9.48;;;6.25;;
12625;SDS011;6378;42.684;23.372;2023-07-13T11:48:18;11.10;;;6.80;;
12625;SDS011;6378;42.684;23.372;2023-07-13T11:53:22;7.82;;;6.20;;
12625;SDS011;6378;42.684;23.372;2023-07-13T11:55:50;8.85;;;6.75;;
12625;SDS011;6378;42.684;23.372;2023-07-13T11:58:17;15.00;;;9.43;;
12625;SDS011;6378;42.684;23.372;2023-07-13T12:00:46;9.85;;;6.80;;
12625;SDS011;6378;42.684;23.372;2023-07-13T12:03:13;7.97;;;6.65;;
12625;SDS011;6378;42.684;23.372;2023-07-13T12:06:01;7.93;;;6.50;;
12625;SDS011;6378;42.684;23.372;2023-07-13T12:08:30;8.02;;;6.22;;
12625;SDS011;6378;42.684;23.372;2023-07-13T12:11:02;11.25;;;6.47;;
12625;SDS011;6378;42.684;23.372;2023-07-13T12:13:37;7.70;;;6.75;;
12625;SDS011;6378;42.684;23.372;2023-07-13T12:16:10;8.05;;;7.18;;
12625;SDS011;6378;42.684;23.372;2023-07-13T12:18:37;13.10;;;6.88;;
12625;SDS011;6378;42.684;23.372;2023-07-13T12:21:03;11.57;;;6.57;;
12625;SDS011;6378;42.684;23.372;2023-07-13T12:23:33;9.35;;;6.03;;
12625;SDS011;6378;42.684;23.372;2023-07-13T12:26:04;10.30;;;6.78;;
12625;SDS011;6378;42.684;23.372;2023-07-13T12:28:38;10.30;;;6.38;;
12625;SDS011;6378;42.684;23.372;2023-07-13T12:31:22;10.80;;;6.45;;
12625;SDS011;6378;42.684;23.372;2023-07-13T12:34:07;9.35;;;6.25;;
12625;SDS011;6378;42.684;23.372;2023-07-13T12:42:31;12.40;;;7.03;;
12625;SDS011;6378;42.684;23.372;2023-07-13T12:45:18;10.07;;;6.28;;
12625;SDS011;6378;42.684;23.372;2023-07-13T12:51:00;10.25;;;6.18;;
12625;SDS011;6378;42.684;23.372;2023-07-13T12:53:29;9.32;;;6.20;;
12625;SDS011;6378;42.684;23.372;2023-07-13T12:58:45;14.90;;;6.35;;
12625;SDS011;6378;42.684;23.372;2023-07-13T13:01:13;10.40;;;6.30;;
12625;SDS011;6378;42.684;23.372;2023-07-13T13:03:52;8.63;;;6.30;;
12625;SDS011;6378;42.684;23.372;2023-07-13T13:09:45;16.13;;;7.25;;
12625;SDS011;6378;42.684;23.372;2023-07-13T13:12:12;10.20;;;7.65;;
12625;SDS011;6378;42.684;23.372;2023-07-13T13:14:42;9.00;;;7.80;;
12625;SDS011;6378;42.684;23.372;2023-07-13T13:20:19;11.90;;;7.80;;
12625;SDS011;6378;42.684;23.372;2023-07-13T13:22:46;11.18;;;8.18;;
12625;SDS011;6378;42.684;23.372;2023-07-13T13:25:12;15.15;;;7.97;;
12625;SDS011;6378;42.684;23.372;2023-07-13T13:27:40;12.35;;;8.07;;
12625;SDS011;6378;42.684;23.372;2023-07-13T13:30:10;12.50;;;7.95;;
12625;SDS011;6378;42.684;23.372;2023-07-13T13:32:41;11.38;;;7.53;;
12625;SDS011;6378;42.684;23.372;2023-07-13T13:35:17;9.55;;;7.55;;
12625;SDS011;6378;42.684;23.372;2023-07-13T13:37:44;13.80;;;7.60;;
12625;SDS011;6378;42.684;23.372;2023-07-13T13:40:14;11.07;;;8.32;;
12625;SDS011;6378;42.684;23.372;2023-07-13T13:42:44;10.70;;;7.50;;
12625;SDS011;6378;42.684;23.372;2023-07-13T13:45:10;10.73;;;7.72;;
12625;SDS011;6378;42.684;23.372;2023-07-13T13:47:37;10.48;;;6.95;;
12625;SDS011;6378;42.684;23.372;2023-07-13T13:50:13;11.80;;;6.78;;
12625;SDS011;6378;42.684;23.372;2023-07-13T13:52:44;13.57;;;6.13;;
12625;SDS011;6378;42.684;23.372;2023-07-13T13:55:19;8.68;;;6.43;;
12625;SDS011;6378;42.684;23.372;2023-07-13T13:57:46;10.50;;;6.75;;
12625;SDS011;6378;42.684;23.372;2023-07-13T14:00:12;10.15;;;7.07;;
12625;SDS011;6378;42.684;23.372;2023-07-13T14:02:43;10.57;;;6.82;;
12625;SDS011;6378;42.684;23.372;2023-07-13T14:05:20;12.43;;;8.77;;
12625;SDS011;6378;42.684;23.372;2023-07-13T14:07:47;10.15;;;6.22;;
12625;SDS011;6378;42.684;23.372;2023-07-13T14:10:14;10.40;;;5.90;;
12625;SDS011;6378;42.684;23.372;2023-07-13T14:12:51;11.00;;;6.28;;
12625;SDS011;6378;42.684;23.372;2023-07-13T14:15:22;9.27;;;6.32;;
12625;SDS011;6378;42.684;23.372;2023-07-13T14:17:48;13.32;;;7.00;;
12625;SDS011;6378;42.684;23.372;2023-07-13T14:20:17;10.27;;;7.13;;
12625;SDS011;6378;42.684;23.372;2023-07-13T14:22:44;10.43;;;7.53;;
12625;SDS011;6378;42.684;23.372;2023-07-13T14:25:12;17.48;;;14.00;;
12625;SDS011;6378;42.684;23.372;2023-07-13T14:27:40;14.27;;;11.10;;
12625;SDS011;6378;42.684;23.372;2023-07-13T14:30:16;13.60;;;9.15;;
12625;SDS011;6378;42.684;23.372;2023-07-13T14:32:44;12.00;;;7.95;;
12625;SDS011;6378;42.684;23.372;2023-07-13T14:35:13;11.23;;;6.13;;
12625;SDS011;6378;42.684;23.372;2023-07-13T14:37:40;11.02;;;6.13;;
12625;SDS011;6378;42.684;23.372;2023-07-13T14:42:38;14.38;;;6.78;;
12625;SDS011;6378;42.684;23.372;2023-07-13T14:45:03;14.52;;;6.50;;
12625;SDS011;6378;42.684;23.372;2023-07-13T14:47:29;12.02;;;6.35;;
12625;SDS011;6378;42.684;23.372;2023-07-13T14:49:55;10.73;;;6.45;;
12625;SDS011;6378;42.684;23.372;2023-07-13T14:52:21;11.68;;;6.47;;
12625;SDS011;6378;42.684;23.372;2023-07-13T14:54:49;10.68;;;6.57;;
12625;SDS011;6378;42.684;23.372;2023-07-13T14:57:18;11.77;;;6.50;;
12625;SDS011;6378;42.684;23.372;2023-07-13T14:59:45;10.40;;;6.50;;
12625;SDS011;6378;42.684;23.372;2023-07-13T15:04:43;10.88;;;6.57;;
12625;SDS011;6378;42.684;23.372;2023-07-13T15:07:10;13.25;;;6.75;;
12625;SDS011;6378;42.684;23.372;2023-07-13T15:09:36;12.43;;;6.25;;
12625;SDS011;6378;42.684;23.372;2023-07-13T15:12:03;10.30;;;5.90;;
12625;SDS011;6378;42.684;23.372;2023-07-13T15:14:30;14.10;;;6.47;;
12625;SDS011;6378;42.684;23.372;2023-07-13T15:16:56;8.85;;;6.13;;
12625;SDS011;6378;42.684;23.372;2023-07-13T15:19:21;11.90;;;7.30;;
12625;SDS011;6378;42.684;23.372;2023-07-13T15:21:48;8.27;;;6.10;;
12625;SDS011;6378;42.684;23.372;2023-07-13T15:24:14;13.00;;;6.63;;
12625;SDS011;6378;42.684;23.372;2023-07-13T15:26:40;9.85;;;7.32;;
12625;SDS011;6378;42.684;23.372;2023-07-13T15:29:10;8.48;;;6.88;;
12625;SDS011;6378;42.684;23.372;2023-07-13T15:31:36;11.02;;;6.95;;
12625;SDS011;6378;42.684;23.372;2023-07-13T15:34:07;10.43;;;7.07;;
12625;SDS011;6378;42.684;23.372;2023-07-13T15:36:36;9.88;;;6.70;;
12625;SDS011;6378;42.684;23.372;2023-07-13T15:39:02;10.63;;;7.00;;
12625;SDS011;6378;42.684;23.372;2023-07-13T15:41:28;11.20;;;7.47;;
12625;SDS011;6378;42.684;23.372;2023-07-13T15:43:54;8.80;;;6.60;;
12625;SDS011;6378;42.684;23.372;2023-07-13T15:46:24;10.27;;;7.20;;
12625;SDS011;6378;42.684;23.372;2023-07-13T15:48:52;11.82;;;7.10;;
12625;SDS011;6378;42.684;23.372;2023-07-13T15:51:28;11.90;;;7.90;;